createdAt,value
2017-08-25T00:00:40.400Z,0
2017-08-25T00:01:41.722Z,0
2017-08-25T00:02:41.366Z,0
2017-08-25T00:03:41.451Z,0
2017-08-25T00:04:41.937Z,0
2017-08-25T00:05:42.618Z,0
2017-08-25T00:06:43.553Z,0
2017-08-25T00:07:37.947Z,0
2017-08-25T00:08:38.634Z,0
2017-08-25T00:09:38.605Z,0
2017-08-25T00:10:33.645Z,0
2017-08-25T00:11:34.216Z,0
2017-08-25T00:12:28.628Z,0
2017-08-25T00:13:27.816Z,0
2017-08-25T00:14:22.877Z,0
2017-08-25T00:15:18.424Z,0
2017-08-25T00:16:18.491Z,0
2017-08-25T00:17:12.859Z,0
2017-08-25T00:18:08.288Z,0
2017-08-25T00:19:08.968Z,0
2017-08-25T00:20:09.006Z,0
2017-08-25T00:21:09.331Z,0
2017-08-25T00:22:04.300Z,0
2017-08-25T00:22:58.150Z,0
2017-08-25T00:23:59.761Z,0
2017-08-25T00:25:00.765Z,0
2017-08-25T00:25:55.649Z,0
2017-08-25T00:26:55.681Z,0
2017-08-25T00:27:55.265Z,0
2017-08-25T00:28:49.233Z,0
2017-08-25T00:29:49.590Z,0
2017-08-25T00:30:49.904Z,0
2017-08-25T00:31:44.885Z,0
2017-08-25T00:32:38.926Z,0
2017-08-25T00:33:38.929Z,0
2017-08-25T00:34:33.929Z,0
2017-08-25T00:35:28.993Z,0
2017-08-25T00:36:29.051Z,0
2017-08-25T00:37:24.092Z,0
2017-08-25T00:38:19.115Z,0
2017-08-25T00:39:19.172Z,0
2017-08-25T00:40:14.249Z,0
2017-08-25T00:41:14.480Z,0
2017-08-25T00:42:15.310Z,0
2017-08-25T00:43:09.439Z,0
2017-08-25T00:44:10.411Z,0
2017-08-25T00:45:10.435Z,0
2017-08-25T00:46:10.437Z,0
2017-08-25T00:47:05.903Z,0
2017-08-25T00:47:59.524Z,0
2017-08-25T00:48:59.571Z,0
2017-08-25T00:49:54.611Z,0
2017-08-25T00:50:54.582Z,0
2017-08-25T00:51:48.728Z,0
2017-08-25T00:52:49.037Z,0
2017-08-25T00:53:43.677Z,0
2017-08-25T00:54:38.754Z,0
2017-08-25T00:55:38.781Z,0
2017-08-25T00:56:33.786Z,0
2017-08-25T00:57:28.919Z,0
2017-08-25T00:58:29.964Z,0
2017-08-25T00:59:29.903Z,0
2017-08-25T01:00:36.010Z,0
2017-08-25T01:01:31.128Z,0
2017-08-25T01:02:26.022Z,0
2017-08-25T01:03:27.095Z,0
2017-08-25T01:04:27.309Z,0
2017-08-25T01:05:27.282Z,0
2017-08-25T01:06:22.171Z,0
2017-08-25T01:07:16.127Z,0
2017-08-25T01:08:16.279Z,0
2017-08-25T01:09:11.322Z,0
2017-08-25T01:10:11.353Z,0
2017-08-25T01:11:05.458Z,0
2017-08-25T01:12:05.349Z,0
2017-08-25T01:13:00.413Z,0
2017-08-25T01:13:55.520Z,0
2017-08-25T01:14:55.452Z,0
2017-08-25T01:15:50.587Z,0
2017-08-25T01:16:50.701Z,0
2017-08-25T01:17:50.673Z,0
2017-08-25T01:18:50.669Z,0
2017-08-25T01:19:44.700Z,0
2017-08-25T01:20:44.757Z,0
2017-08-25T01:21:39.824Z,0
2017-08-25T01:22:39.836Z,0
2017-08-25T01:23:39.853Z,0
2017-08-25T01:24:39.848Z,0
2017-08-25T01:25:33.794Z,0
2017-08-25T01:26:33.944Z,0
2017-08-25T01:27:28.880Z,0
2017-08-25T01:28:24.014Z,0
2017-08-25T01:29:25.085Z,0
2017-08-25T01:30:25.085Z,0
2017-08-25T01:31:25.136Z,0
2017-08-25T01:32:20.293Z,0
2017-08-25T01:33:20.181Z,0
2017-08-25T01:34:20.348Z,0
2017-08-25T01:35:14.164Z,0
2017-08-25T01:36:14.262Z,0
2017-08-25T01:37:09.261Z,0
2017-08-25T01:38:09.445Z,0
2017-08-25T01:39:03.517Z,0
2017-08-25T01:40:03.454Z,0
2017-08-25T01:40:58.557Z,0
2017-08-25T01:41:53.512Z,0
2017-08-25T01:42:53.558Z,0
2017-08-25T01:43:48.586Z,0
2017-08-25T01:44:43.664Z,0
2017-08-25T01:45:44.724Z,0
2017-08-25T01:46:44.686Z,0
2017-08-25T01:47:44.663Z,0
2017-08-25T01:48:39.770Z,0
2017-08-25T01:49:33.803Z,0
2017-08-25T01:50:34.830Z,0
2017-08-25T01:51:34.870Z,0
2017-08-25T01:52:34.835Z,0
2017-08-25T01:53:29.974Z,0
2017-08-25T01:54:23.970Z,0
2017-08-25T01:55:24.043Z,0
2017-08-25T01:56:18.965Z,0
2017-08-25T01:57:14.156Z,0
2017-08-25T01:58:15.040Z,0
2017-08-25T01:59:15.133Z,0
2017-08-25T02:00:15.279Z,0
2017-08-25T02:01:10.230Z,0
2017-08-25T02:02:04.380Z,0
2017-08-25T02:03:05.281Z,0
2017-08-25T02:04:05.355Z,0
2017-08-25T02:05:05.418Z,0
2017-08-25T02:06:00.397Z,0
2017-08-25T02:06:54.470Z,0
2017-08-25T02:07:54.586Z,0
2017-08-25T02:08:49.542Z,0
2017-08-25T02:09:44.611Z,0
2017-08-25T02:10:45.637Z,0
2017-08-25T02:11:45.623Z,0
2017-08-25T02:12:45.794Z,0
2017-08-25T02:13:40.820Z,0
2017-08-25T02:14:34.675Z,0
2017-08-25T02:15:34.777Z,0
2017-08-25T02:16:29.817Z,0
2017-08-25T02:17:29.785Z,0
2017-08-25T02:18:29.796Z,0
2017-08-25T02:19:29.877Z,0
2017-08-25T02:20:23.881Z,0
2017-08-25T02:21:23.969Z,0
2017-08-25T02:22:19.086Z,0
2017-08-25T02:23:24.968Z,0
2017-08-25T02:24:20.096Z,0
2017-08-25T02:25:14.144Z,0
2017-08-25T02:26:15.232Z,0
2017-08-25T02:27:10.218Z,0
2017-08-25T02:28:10.225Z,0
2017-08-25T02:29:10.378Z,0
2017-08-25T02:30:04.330Z,0
2017-08-25T02:31:04.344Z,0
2017-08-25T02:32:04.361Z,0
2017-08-25T02:32:59.439Z,0
2017-08-25T02:33:53.439Z,0
2017-08-25T02:34:53.462Z,0
2017-08-25T02:35:48.465Z,0
2017-08-25T02:36:43.519Z,0
2017-08-25T02:37:43.547Z,0
2017-08-25T02:38:38.602Z,0
2017-08-25T02:39:33.672Z,0
2017-08-25T02:40:33.571Z,0
2017-08-25T02:41:28.646Z,0
2017-08-25T02:42:23.787Z,0
2017-08-25T02:43:29.878Z,0
2017-08-25T02:44:23.782Z,0
2017-08-25T02:45:23.859Z,0
2017-08-25T02:46:18.896Z,0
2017-08-25T02:47:18.947Z,0
2017-08-25T02:48:12.892Z,0
2017-08-25T02:49:13.041Z,0
2017-08-25T02:50:07.979Z,0
2017-08-25T02:51:03.068Z,0
2017-08-25T02:52:03.005Z,0
2017-08-25T02:52:58.103Z,0
2017-08-25T02:53:53.206Z,0
2017-08-25T02:54:53.196Z,0
2017-08-25T02:55:48.127Z,0
2017-08-25T02:56:43.224Z,0
2017-08-25T02:57:44.324Z,0
2017-08-25T02:58:44.248Z,0
2017-08-25T02:59:44.338Z,0
2017-08-25T03:00:39.440Z,0
2017-08-25T03:01:33.624Z,0
2017-08-25T03:02:33.430Z,0
2017-08-25T03:03:28.535Z,0
2017-08-25T03:04:28.494Z,0
2017-08-25T03:05:22.533Z,0
2017-08-25T03:06:23.558Z,0
2017-08-25T03:07:29.588Z,0
2017-08-25T03:08:23.596Z,0
2017-08-25T03:09:23.555Z,0
2017-08-25T03:10:23.607Z,0
2017-08-25T03:11:18.668Z,0
2017-08-25T03:12:12.804Z,0
2017-08-25T03:13:12.908Z,0
2017-08-25T03:14:07.931Z,0
2017-08-25T03:15:07.957Z,0
2017-08-25T03:16:07.899Z,0
2017-08-25T03:17:08.000Z,0
2017-08-25T03:18:02.046Z,0
2017-08-25T03:19:01.966Z,0
2017-08-25T03:19:57.043Z,0
2017-08-25T03:20:52.040Z,0
2017-08-25T03:21:53.196Z,0
2017-08-25T03:22:53.240Z,0
2017-08-25T03:23:53.338Z,0
2017-08-25T03:24:48.205Z,0
2017-08-25T03:25:42.287Z,0
2017-08-25T03:26:42.374Z,0
2017-08-25T03:27:37.401Z,0
2017-08-25T03:28:37.387Z,0
2017-08-25T03:29:31.413Z,0
2017-08-25T03:30:31.357Z,0
2017-08-25T03:31:26.503Z,0
2017-08-25T03:32:21.473Z,0
2017-08-25T03:33:22.514Z,0
2017-08-25T03:34:22.566Z,0
2017-08-25T03:35:22.541Z,0
2017-08-25T03:36:22.711Z,0
2017-08-25T03:37:22.701Z,0
2017-08-25T03:38:17.726Z,0
2017-08-25T03:39:11.760Z,0
2017-08-25T03:40:11.698Z,0
2017-08-25T03:41:06.798Z,0
2017-08-25T03:42:06.815Z,0
2017-08-25T03:43:06.879Z,0
2017-08-25T03:44:06.804Z,0
2017-08-25T03:45:00.943Z,0
2017-08-25T03:46:00.897Z,0
2017-08-25T03:46:55.958Z,0
2017-08-25T03:47:51.004Z,0
2017-08-25T03:48:50.946Z,0
2017-08-25T03:49:46.068Z,0
2017-08-25T03:50:41.092Z,0
2017-08-25T03:51:41.160Z,0
2017-08-25T03:52:36.240Z,0
2017-08-25T03:53:31.258Z,4
2017-08-25T03:54:32.307Z,4
2017-08-25T03:55:32.213Z,0
2017-08-25T03:56:32.371Z,4
2017-08-25T03:57:27.326Z,4
2017-08-25T03:58:21.362Z,4
2017-08-25T03:59:21.290Z,4
2017-08-25T04:00:16.489Z,4
2017-08-25T04:01:22.515Z,8
2017-08-25T04:02:17.648Z,8
2017-08-25T04:03:11.664Z,8
2017-08-25T04:04:11.682Z,12
2017-08-25T04:05:11.657Z,16
2017-08-25T04:06:12.613Z,16
2017-08-25T04:07:07.689Z,16
2017-08-25T04:08:07.706Z,20
2017-08-25T04:09:02.763Z,24
2017-08-25T04:09:57.848Z,28
2017-08-25T04:10:57.920Z,32
2017-08-25T04:11:57.926Z,40
2017-08-25T04:12:58.983Z,44
2017-08-25T04:13:59.078Z,52
2017-08-25T04:14:53.918Z,64
2017-08-25T04:15:53.919Z,76
2017-08-25T04:16:48.186Z,88
2017-08-25T04:17:48.037Z,108
2017-08-25T04:18:43.185Z,124
2017-08-25T04:19:38.196Z,140
2017-08-25T04:20:32.110Z,152
2017-08-25T04:21:32.231Z,172
2017-08-25T04:22:27.168Z,180
2017-08-25T04:23:22.183Z,196
2017-08-25T04:24:22.260Z,208
2017-08-25T04:25:17.232Z,228
2017-08-25T04:26:12.242Z,248
2017-08-25T04:27:06.554Z,264
2017-08-25T04:28:06.448Z,284
2017-08-25T04:29:01.469Z,300
2017-08-25T04:30:01.397Z,328
2017-08-25T04:31:01.684Z,360
2017-08-25T04:32:01.555Z,404
2017-08-25T04:32:55.468Z,436
2017-08-25T04:33:55.636Z,488
2017-08-25T04:34:50.500Z,544
2017-08-25T04:35:45.549Z,596
2017-08-25T04:36:39.847Z,656
2017-08-25T04:37:39.910Z,724
2017-08-25T04:38:34.936Z,788
2017-08-25T04:39:29.835Z,860
2017-08-25T04:40:29.894Z,948
2017-08-25T04:41:24.970Z,1040
2017-08-25T04:42:19.969Z,1128
2017-08-25T04:43:13.975Z,1212
2017-08-25T04:44:19.980Z,1316
2017-08-25T04:45:14.057Z,1392
2017-08-25T04:46:15.055Z,1468
2017-08-25T04:47:10.054Z,1584
2017-08-25T04:48:10.237Z,1676
2017-08-25T04:49:10.275Z,1756
2017-08-25T04:50:10.235Z,1832
2017-08-25T04:51:16.239Z,1988
2017-08-25T04:52:11.311Z,2120
2017-08-25T04:53:05.352Z,2232
2017-08-25T04:54:05.447Z,2440
2017-08-25T04:55:00.408Z,2616
2017-08-25T04:55:55.410Z,2792
2017-08-25T04:56:56.477Z,2968
2017-08-25T04:57:56.478Z,3164
2017-08-25T04:58:51.535Z,3368
2017-08-25T04:59:46.574Z,3496
2017-08-25T05:00:47.727Z,3584
2017-08-25T05:01:47.604Z,3676
2017-08-25T05:02:42.734Z,3700
2017-08-25T05:03:37.786Z,3792
2017-08-25T05:04:37.811Z,3888
2017-08-25T05:05:32.865Z,3920
2017-08-25T05:06:27.845Z,3948
2017-08-25T05:07:21.897Z,4084
2017-08-25T05:08:21.820Z,4164
2017-08-25T05:09:16.938Z,4364
2017-08-25T05:10:16.933Z,4612
2017-08-25T05:11:17.969Z,4904
2017-08-25T05:12:11.986Z,5240
2017-08-25T05:13:12.065Z,5008
2017-08-25T05:14:07.120Z,4772
2017-08-25T05:15:02.233Z,4688
2017-08-25T05:15:56.243Z,4832
2017-08-25T05:16:56.230Z,5000
2017-08-25T05:17:51.278Z,5096
2017-08-25T05:18:46.366Z,5280
2017-08-25T05:19:46.282Z,5620
2017-08-25T05:20:41.364Z,5772
2017-08-25T05:21:41.300Z,6036
2017-08-25T05:22:42.498Z,6272
2017-08-25T05:23:43.518Z,6520
2017-08-25T05:24:43.458Z,6804
2017-08-25T05:25:43.447Z,7160
2017-08-25T05:26:37.614Z,7440
2017-08-25T05:27:37.650Z,7716
2017-08-25T05:28:32.588Z,7960
2017-08-25T05:29:27.730Z,8140
2017-08-25T05:30:21.733Z,8348
2017-08-25T05:31:21.797Z,8904
2017-08-25T05:32:16.762Z,10288
2017-08-25T05:33:11.797Z,10328
2017-08-25T05:34:11.896Z,9752
2017-08-25T05:35:06.867Z,9656
2017-08-25T05:36:02.010Z,9292
2017-08-25T05:36:56.037Z,8716
2017-08-25T05:37:56.968Z,8788
2017-08-25T05:38:57.007Z,9160
2017-08-25T05:39:57.171Z,10264
2017-08-25T05:40:52.126Z,10980
2017-08-25T05:41:52.161Z,11928
2017-08-25T05:42:52.167Z,10912
2017-08-25T05:43:52.205Z,9420
2017-08-25T05:44:58.378Z,10548
2017-08-25T05:45:53.376Z,9568
2017-08-25T05:46:53.350Z,10952
2017-08-25T05:47:53.540Z,11224
2017-08-25T05:48:47.382Z,10008
2017-08-25T05:49:47.452Z,9236
2017-08-25T05:50:42.480Z,8040
2017-08-25T05:51:37.536Z,8244
2017-08-25T05:52:31.624Z,8356
2017-08-25T05:53:31.658Z,8036
2017-08-25T05:54:26.723Z,7384
2017-08-25T05:55:26.752Z,7396
2017-08-25T05:56:26.816Z,7564
2017-08-25T05:57:26.839Z,7920
2017-08-25T05:58:20.862Z,8520
2017-08-25T05:59:21.867Z,9660
2017-08-25T06:00:21.991Z,9792
2017-08-25T06:01:16.997Z,9912
2017-08-25T06:02:11.997Z,9644
2017-08-25T06:03:12.037Z,10492
2017-08-25T06:04:07.174Z,10948
2017-08-25T06:05:02.104Z,10184
2017-08-25T06:05:56.255Z,10220
2017-08-25T06:06:56.242Z,11508
2017-08-25T06:07:51.224Z,10452
2017-08-25T06:08:46.192Z,11768
2017-08-25T06:09:47.239Z,15680
2017-08-25T06:10:47.354Z,14592
2017-08-25T06:11:41.916Z,17824
2017-08-25T06:12:41.916Z,17120
2017-08-25T06:13:43.139Z,14252
2017-08-25T06:14:43.099Z,15616
2017-08-25T06:15:43.006Z,16992
2017-08-25T06:16:43.542Z,16544
2017-08-25T06:17:43.382Z,16224
2017-08-25T06:18:43.236Z,22080
2017-08-25T06:19:43.411Z,22656
2017-08-25T06:20:43.476Z,23168
2017-08-25T06:21:43.530Z,23264
2017-08-25T06:22:43.839Z,23200
2017-08-25T06:23:43.898Z,20672
2017-08-25T06:24:43.894Z,22976
2017-08-25T06:25:43.917Z,25888
2017-08-25T06:26:44.023Z,21824
2017-08-25T06:27:44.078Z,15200
2017-08-25T06:28:44.107Z,20832
2017-08-25T06:29:44.242Z,19040
2017-08-25T06:30:38.140Z,18400
2017-08-25T06:31:32.133Z,14652
2017-08-25T06:32:27.266Z,13760
2017-08-25T06:33:16.287Z,13336
2017-08-25T06:34:04.287Z,13388
2017-08-25T06:34:53.483Z,13448
2017-08-25T06:35:41.445Z,13464
2017-08-25T06:36:29.518Z,15604
2017-08-25T06:37:18.535Z,14524
2017-08-25T06:38:06.504Z,14356
2017-08-25T06:38:54.778Z,14032
2017-08-25T06:39:42.724Z,14928
2017-08-25T06:40:31.815Z,19488
2017-08-25T06:41:19.940Z,23776
2017-08-25T06:42:07.769Z,29792
2017-08-25T06:42:56.874Z,33088
2017-08-25T06:43:44.978Z,28960
2017-08-25T06:44:39.028Z,23968
2017-08-25T06:45:28.094Z,29472
2017-08-25T06:46:22.107Z,27808
2017-08-25T06:47:17.196Z,17632
2017-08-25T06:48:12.129Z,15864
2017-08-25T06:49:01.211Z,17664
2017-08-25T06:49:49.273Z,16372
2017-08-25T06:50:43.395Z,19232
2017-08-25T06:51:32.709Z,20576
2017-08-25T06:52:26.420Z,21984
2017-08-25T06:53:20.503Z,16992
2017-08-25T06:54:14.601Z,16640
2017-08-25T06:55:15.553Z,20896
2017-08-25T06:56:16.591Z,24480
2017-08-25T06:57:10.864Z,23744
2017-08-25T06:57:58.762Z,27328
2017-08-25T06:58:58.698Z,19840
2017-08-25T06:59:53.783Z,16896
2017-08-25T07:00:48.810Z,16544
2017-08-25T07:01:36.938Z,16640
2017-08-25T07:02:32.637Z,17376
2017-08-25T07:03:20.940Z,17856
2017-08-25T07:04:15.051Z,18816
2017-08-25T07:05:10.081Z,24224
2017-08-25T07:06:04.250Z,24352
2017-08-25T07:06:58.243Z,25088
2017-08-25T07:07:58.337Z,26944
2017-08-25T07:08:53.237Z,31328
2017-08-25T07:09:41.299Z,35328
2017-08-25T07:10:35.448Z,37408
2017-08-25T07:11:23.472Z,38944
2017-08-25T07:12:11.532Z,40032
2017-08-25T07:13:12.645Z,40544
2017-08-25T07:14:06.601Z,43200
2017-08-25T07:15:00.690Z,39936
2017-08-25T07:15:54.718Z,33952
2017-08-25T07:16:49.693Z,34528
2017-08-25T07:17:37.779Z,22912
2017-08-25T07:18:26.777Z,19008
2017-08-25T07:19:14.927Z,22400
2017-08-25T07:20:08.981Z,24448
2017-08-25T07:21:02.914Z,19712
2017-08-25T07:21:57.024Z,19104
2017-08-25T07:22:52.138Z,18176
2017-08-25T07:23:52.166Z,18432
2017-08-25T07:24:46.319Z,19008
2017-08-25T07:25:40.278Z,20256
2017-08-25T07:26:40.288Z,19072
2017-08-25T07:27:35.330Z,20224
2017-08-25T07:28:30.345Z,25920
2017-08-25T07:29:18.395Z,29952
2017-08-25T07:30:18.456Z,33472
2017-08-25T07:31:07.590Z,37952
2017-08-25T07:32:01.485Z,40480
2017-08-25T07:32:50.542Z,32736
2017-08-25T07:33:50.704Z,46624
2017-08-25T07:34:44.719Z,44288
2017-08-25T07:35:33.793Z,38208
2017-08-25T07:36:27.847Z,43360
2017-08-25T07:37:16.854Z,46368
2017-08-25T07:38:04.918Z,46752
2017-08-25T07:38:53.961Z,51680
2017-08-25T07:39:54.071Z,56576
2017-08-25T07:40:49.161Z,48960
2017-08-25T07:41:44.301Z,52928
2017-08-25T07:42:44.244Z,48800
2017-08-25T07:43:32.205Z,47456
2017-08-25T07:44:26.349Z,46464
2017-08-25T07:45:14.437Z,45536
2017-08-25T07:46:02.395Z,49024
2017-08-25T07:47:02.484Z,50656
2017-08-25T07:47:56.517Z,57504
2017-08-25T07:48:56.482Z,59328
2017-08-25T07:49:44.635Z,61952
2017-08-25T07:50:33.902Z,60384
2017-08-25T07:51:28.765Z,59712
2017-08-25T07:52:28.832Z,57408
2017-08-25T07:53:23.852Z,51840
2017-08-25T07:54:12.896Z,50208
2017-08-25T07:55:06.909Z,55200
2017-08-25T07:55:55.066Z,43296
2017-08-25T07:56:43.123Z,49856
2017-08-25T07:57:37.158Z,62048
2017-08-25T07:58:31.264Z,63424
2017-08-25T07:59:25.364Z,50464
2017-08-25T08:00:14.341Z,49856
2017-08-25T08:01:03.401Z,60896
2017-08-25T08:01:52.422Z,59776
2017-08-25T08:02:52.559Z,60672
2017-08-25T08:03:40.572Z,60032
2017-08-25T08:04:35.596Z,58048
2017-08-25T08:05:29.703Z,59712
2017-08-25T08:06:19.236Z,58112
2017-08-25T08:07:13.830Z,53824
2017-08-25T08:08:07.871Z,50464
2017-08-25T08:09:07.950Z,47296
2017-08-25T08:10:02.964Z,47264
2017-08-25T08:10:56.990Z,48608
2017-08-25T08:11:52.042Z,51360
2017-08-25T08:12:46.130Z,54048
2017-08-25T08:13:40.210Z,59072
2017-08-25T08:14:29.208Z,62432
2017-08-25T08:15:23.293Z,64480
2017-08-25T08:16:11.308Z,67040
2017-08-25T08:17:05.452Z,67488
2017-08-25T08:17:54.511Z,64576
2017-08-25T08:18:48.558Z,65856
2017-08-25T08:19:43.606Z,66976
2017-08-25T08:20:31.791Z,63072
2017-08-25T08:21:31.746Z,59424
2017-08-25T08:22:20.779Z,59200
2017-08-25T08:23:08.842Z,57376
2017-08-25T08:24:08.836Z,52480
2017-08-25T08:25:03.062Z,51392
2017-08-25T08:25:51.103Z,53760
2017-08-25T08:26:45.082Z,54976
2017-08-25T08:27:40.091Z,58464
2017-08-25T08:28:29.068Z,59328
2017-08-25T08:29:29.161Z,35424
2017-08-25T08:30:23.273Z,52096
2017-08-25T08:31:18.278Z,59072
2017-08-25T08:32:12.431Z,36000
2017-08-25T08:33:06.489Z,43904
2017-08-25T08:34:01.580Z,49120
2017-08-25T08:34:50.544Z,47552
2017-08-25T08:35:50.629Z,51104
2017-08-25T08:36:39.630Z,49376
2017-08-25T08:37:33.771Z,39392
2017-08-25T08:38:28.831Z,48864
2017-08-25T08:39:29.818Z,62592
2017-08-25T08:40:29.898Z,63968
2017-08-25T08:41:30.027Z,67232
2017-08-25T08:42:18.198Z,68256
2017-08-25T08:43:07.140Z,70784
2017-08-25T08:44:01.178Z,72256
2017-08-25T08:45:01.186Z,67040
2017-08-25T08:45:55.350Z,65600
2017-08-25T08:46:49.378Z,64928
2017-08-25T08:47:38.511Z,64672
2017-08-25T08:48:32.508Z,49632
2017-08-25T08:49:32.499Z,46688
2017-08-25T08:50:26.629Z,41088
2017-08-25T08:51:15.641Z,44832
2017-08-25T08:52:04.781Z,49664
2017-08-25T08:52:58.857Z,54432
2017-08-25T08:53:52.880Z,62144
2017-08-25T08:54:41.928Z,65440
2017-08-25T08:55:35.964Z,68320
2017-08-25T08:56:30.074Z,67744
2017-08-25T08:57:23.973Z,63168
2017-08-25T08:58:13.074Z,61152
2017-08-25T08:59:02.205Z,62560
2017-08-25T08:59:51.319Z,59552
2017-08-25T09:00:45.232Z,62848
2017-08-25T09:01:40.257Z,62176
2017-08-25T09:02:34.417Z,62880
2017-08-25T09:03:28.511Z,63904
2017-08-25T09:04:22.710Z,66624
2017-08-25T09:05:17.702Z,67712
2017-08-25T09:06:12.774Z,70176
2017-08-25T09:07:07.781Z,59296
2017-08-25T09:08:01.852Z,67424
2017-08-25T09:09:01.930Z,70688
2017-08-25T09:09:49.967Z,73280
2017-08-25T09:10:50.151Z,70944
2017-08-25T09:11:45.069Z,72256
2017-08-25T09:12:40.187Z,71712
2017-08-25T09:13:34.199Z,73952
2017-08-25T09:14:23.412Z,70432
2017-08-25T09:15:17.382Z,70816
2017-08-25T09:16:11.479Z,72608
2017-08-25T09:17:11.504Z,63840
2017-08-25T09:17:59.659Z,57568
2017-08-25T09:18:59.758Z,71808
2017-08-25T09:19:53.839Z,68992
2017-08-25T09:20:47.835Z,68096
2017-08-25T09:21:42.011Z,45120
2017-08-25T09:22:35.987Z,63712
2017-08-25T09:23:30.110Z,50272
2017-08-25T09:24:24.204Z,34336
2017-08-25T09:25:18.237Z,40832
2017-08-25T09:26:13.182Z,52224
2017-08-25T09:27:07.509Z,64672
2017-08-25T09:28:02.504Z,68320
2017-08-25T09:28:51.500Z,71936
2017-08-25T09:29:46.523Z,76608
2017-08-25T09:30:40.669Z,80000
2017-08-25T09:31:35.658Z,85248
2017-08-25T09:32:35.764Z,88192
2017-08-25T09:33:30.704Z,83296
2017-08-25T09:34:19.838Z,80320
2017-08-25T09:35:08.917Z,72096
2017-08-25T09:36:02.939Z,73824
2017-08-25T09:36:52.032Z,69536
2017-08-25T09:37:46.435Z,54112
2017-08-25T09:38:46.397Z,72608
2017-08-25T09:39:46.315Z,69536
2017-08-25T09:40:47.346Z,66816
2017-08-25T09:41:36.401Z,72960
2017-08-25T09:42:30.550Z,70848
2017-08-25T09:43:25.642Z,74528
2017-08-25T09:44:26.729Z,69184
2017-08-25T09:45:21.895Z,70816
2017-08-25T09:46:16.868Z,66688
2017-08-25T09:47:16.831Z,61440
2017-08-25T09:48:10.886Z,60864
2017-08-25T09:49:05.004Z,61664
2017-08-25T09:50:06.056Z,69440
2017-08-25T09:50:55.098Z,65696
2017-08-25T09:51:49.295Z,66848
2017-08-25T09:52:38.324Z,66240
2017-08-25T09:53:27.374Z,66080
2017-08-25T09:54:22.423Z,67712
2017-08-25T09:55:17.535Z,68160
2017-08-25T09:56:06.495Z,68224
2017-08-25T09:57:06.579Z,63808
2017-08-25T09:58:12.564Z,65312
2017-08-25T09:59:12.690Z,65440
2017-08-25T10:00:06.909Z,48672
2017-08-25T10:01:06.835Z,37056
2017-08-25T10:02:00.894Z,73536
2017-08-25T10:02:54.890Z,69728
2017-08-25T10:03:43.986Z,70624
2017-08-25T10:04:32.039Z,67072
2017-08-25T10:05:26.148Z,62592
2017-08-25T10:06:20.123Z,59616
2017-08-25T10:07:20.243Z,59648
2017-08-25T10:08:15.353Z,61408
2017-08-25T10:09:09.293Z,59712
2017-08-25T10:10:04.457Z,60064
2017-08-25T10:10:59.784Z,56160
2017-08-25T10:11:53.513Z,52096
2017-08-25T10:12:42.579Z,54912
2017-08-25T10:13:42.600Z,55584
2017-08-25T10:14:36.828Z,50272
2017-08-25T10:15:25.739Z,47456
2017-08-25T10:16:20.187Z,60160
2017-08-25T10:17:14.971Z,62560
2017-08-25T10:18:03.941Z,65952
2017-08-25T10:18:57.993Z,67584
2017-08-25T10:19:46.177Z,66240
2017-08-25T10:20:41.199Z,64704
2017-08-25T10:21:30.217Z,61792
2017-08-25T10:22:18.261Z,61376
2017-08-25T10:23:07.458Z,60288
2017-08-25T10:24:01.448Z,65696
2017-08-25T10:24:50.558Z,64832
2017-08-25T10:25:44.613Z,62624
2017-08-25T10:26:33.707Z,64192
2017-08-25T10:27:27.808Z,62976
2017-08-25T10:28:27.967Z,64352
2017-08-25T10:29:16.849Z,66240
2017-08-25T10:30:06.047Z,62208
2017-08-25T10:31:06.059Z,66176
2017-08-25T10:31:55.270Z,70080
2017-08-25T10:32:50.199Z,70176
2017-08-25T10:33:50.321Z,69664
2017-08-25T10:34:44.364Z,71328
2017-08-25T10:35:38.477Z,72576
2017-08-25T10:36:33.528Z,71360
2017-08-25T10:37:28.567Z,70368
2017-08-25T10:38:16.703Z,68960
2017-08-25T10:39:11.826Z,66592
2017-08-25T10:40:00.830Z,65824
2017-08-25T10:40:54.869Z,64704
2017-08-25T10:41:49.010Z,66912
2017-08-25T10:42:43.033Z,65312
2017-08-25T10:43:38.093Z,64352
2017-08-25T10:44:32.236Z,63072
2017-08-25T10:45:26.336Z,64864
2017-08-25T10:46:21.551Z,65920
2017-08-25T10:47:15.422Z,61056
2017-08-25T10:48:15.679Z,62816
2017-08-25T10:49:15.731Z,62336
2017-08-25T10:50:10.697Z,61728
2017-08-25T10:51:10.961Z,63936
2017-08-25T10:51:59.909Z,63232
2017-08-25T10:52:54.884Z,65344
2017-08-25T10:53:49.089Z,63424
2017-08-25T10:54:38.210Z,62176
2017-08-25T10:55:32.212Z,58784
2017-08-25T10:56:26.254Z,61120
2017-08-25T10:57:20.310Z,64384
2017-08-25T10:58:20.438Z,65952
2017-08-25T10:59:14.645Z,66368
2017-08-25T11:00:09.559Z,64192
2017-08-25T11:01:03.670Z,63712
2017-08-25T11:01:58.724Z,64512
2017-08-25T11:02:52.811Z,64960
2017-08-25T11:03:47.770Z,73472
2017-08-25T11:04:49.056Z,76672
2017-08-25T11:05:42.934Z,78752
2017-08-25T11:06:36.916Z,75584
2017-08-25T11:07:31.037Z,72352
2017-08-25T11:08:19.190Z,68288
2017-08-25T11:09:14.203Z,69632
2017-08-25T11:10:14.289Z,72352
2017-08-25T11:11:02.459Z,71008
2017-08-25T11:11:51.477Z,69152
2017-08-25T11:12:39.571Z,73792
2017-08-25T11:13:33.626Z,74976
2017-08-25T11:14:22.801Z,77280
2017-08-25T11:15:17.810Z,85728
2017-08-25T11:16:06.995Z,80000
2017-08-25T11:17:09.991Z,79936
2017-08-25T11:18:02.077Z,81152
2017-08-25T11:18:51.026Z,80704
2017-08-25T11:19:39.103Z,79808
2017-08-25T11:20:33.294Z,75584
2017-08-25T11:21:27.356Z,74848
2017-08-25T11:22:21.371Z,77248
2017-08-25T11:23:15.487Z,76160
2017-08-25T11:24:15.659Z,75648
2017-08-25T11:25:09.579Z,74848
2017-08-25T11:25:57.743Z,74368
2017-08-25T11:26:52.802Z,71840
2017-08-25T11:27:41.856Z,67872
2017-08-25T11:28:35.910Z,67488
2017-08-25T11:29:23.990Z,67936
2017-08-25T11:30:18.066Z,69792
2017-08-25T11:31:07.316Z,70784
2017-08-25T11:32:01.344Z,69600
2017-08-25T11:32:50.492Z,70144
2017-08-25T11:33:44.466Z,64576
2017-08-25T11:34:38.553Z,63872
2017-08-25T11:35:26.583Z,66432
2017-08-25T11:36:21.741Z,64544
2017-08-25T11:37:15.820Z,64992
2017-08-25T11:38:09.927Z,63392
2017-08-25T11:38:57.937Z,85696
2017-08-25T11:39:47.086Z,64768
2017-08-25T11:40:42.173Z,67360
2017-08-25T11:41:30.567Z,71808
2017-08-25T11:42:24.268Z,69824
2017-08-25T11:43:24.251Z,65664
2017-08-25T11:44:13.351Z,62144
2017-08-25T11:45:01.476Z,66816
2017-08-25T11:45:49.570Z,55392
2017-08-25T11:46:43.682Z,25856
2017-08-25T11:47:37.792Z,76864
2017-08-25T11:48:31.883Z,25856
2017-08-25T11:49:31.920Z,68064
2017-08-25T11:50:33.026Z,26848
2017-08-25T11:51:22.138Z,26752
2017-08-25T11:52:16.605Z,58848
2017-08-25T11:53:16.302Z,63136
2017-08-25T11:54:16.374Z,60160
2017-08-25T11:55:11.478Z,61856
2017-08-25T11:56:00.509Z,51712
2017-08-25T11:56:49.616Z,53760
2017-08-25T11:57:44.631Z,27936
2017-08-25T11:58:44.701Z,58080
2017-08-25T11:59:39.696Z,56800
2017-08-25T12:00:27.704Z,58368
2017-08-25T12:01:16.968Z,23168
2017-08-25T12:02:06.030Z,51392
2017-08-25T12:03:00.185Z,26304
2017-08-25T12:03:54.201Z,31104
2017-08-25T12:04:54.337Z,26720
2017-08-25T12:05:55.303Z,57696
2017-08-25T12:06:44.485Z,57824
2017-08-25T12:07:38.611Z,57088
2017-08-25T12:08:33.628Z,56192
2017-08-25T12:09:27.715Z,52640
2017-08-25T12:10:22.787Z,53184
2017-08-25T12:11:17.876Z,54432
2017-08-25T12:12:17.924Z,28416
2017-08-25T12:13:17.972Z,48640
2017-08-25T12:14:07.136Z,49408
2017-08-25T12:15:02.146Z,49344
2017-08-25T12:15:56.264Z,49824
2017-08-25T12:16:51.259Z,49408
2017-08-25T12:17:51.302Z,50144
2017-08-25T12:18:46.500Z,47648
2017-08-25T12:19:46.547Z,47104
2017-08-25T12:20:46.553Z,45472
2017-08-25T12:21:35.704Z,27008
2017-08-25T12:22:30.694Z,52512
2017-08-25T12:23:30.794Z,54848
2017-08-25T12:24:19.768Z,55072
2017-08-25T12:25:14.137Z,58464
2017-08-25T12:26:08.995Z,59712
2017-08-25T12:27:03.051Z,55840
2017-08-25T12:27:52.250Z,25888
2017-08-25T12:28:46.281Z,57408
2017-08-25T12:29:35.223Z,57312
2017-08-25T12:30:24.627Z,55680
2017-08-25T12:31:24.510Z,52096
2017-08-25T12:32:19.596Z,52416